sensor_id;sensor_type;location;lat;lon;timestamp;P1;durP1;ratioP1;P2;durP2;ratioP2
62457;SDS011;48509;52.122;5.250;2023-08-06T00:01:37;12.2;;;10.9;;
62457;SDS011;48509;52.122;5.250;2023-08-06T00:04:49;15.3;;;12.2;;
62457;SDS011;48509;52.122;5.250;2023-08-06T00:06:25;13.3;;;11.9;;
62457;SDS011;48509;52.122;5.250;2023-08-06T00:08:01;15.3;;;12.2;;
62457;SDS011;48509;52.122;5.250;2023-08-06T00:11:13;14.2;;;11.9;;
62457;SDS011;48509;52.122;5.250;2023-08-06T00:12:49;13.1;;;10.7;;
62457;SDS011;48509;52.122;5.250;2023-08-06T00:14:25;12.6;;;10.6;;
62457;SDS011;48509;52.122;5.250;2023-08-06T00:17:46;15.8;;;11.5;;
62457;SDS011;48509;52.122;5.250;2023-08-06T00:19:23;12.8;;;11.0;;
62457;SDS011;48509;52.122;5.250;2023-08-06T00:20:59;12.6;;;10.7;;
62457;SDS011;48509;52.122;5.250;2023-08-06T00:22:35;11.6;;;10.4;;
62457;SDS011;48509;52.122;5.250;2023-08-06T00:25:49;15.1;;;12.1;;
62457;SDS011;48509;52.122;5.250;2023-08-06T00:27:25;12.5;;;11.1;;
62457;SDS011;48509;52.122;5.250;2023-08-06T00:29:02;16.9;;;12.0;;
62457;SDS011;48509;52.122;5.250;2023-08-06T00:32:16;15.0;;;11.6;;
62457;SDS011;48509;52.122;5.250;2023-08-06T00:33:53;10.9;;;9.81;;
62457;SDS011;48509;52.122;5.250;2023-08-06T00:35:29;12.0;;;10.4;;
62457;SDS011;48509;52.122;5.250;2023-08-06T00:37:06;17.3;;;13.3;;
62457;SDS011;48509;52.122;5.250;2023-08-06T00:40:20;14.3;;;10.1;;
62457;SDS011;48509;52.122;5.250;2023-08-06T00:41:56;13.5;;;12.1;;
62457;SDS011;48509;52.122;5.250;2023-08-06T00:43:33;15.1;;;11.4;;
62457;SDS011;48509;52.122;5.250;2023-08-06T00:46:47;15.1;;;13.0;;
62457;SDS011;48509;52.122;5.250;2023-08-06T00:48:23;17.61;;;12.5;;
62457;SDS011;48509;52.122;5.250;2023-08-06T00:50:00;16.5;;;13.3;;
62457;SDS011;48509;52.122;5.250;2023-08-06T00:51:37;20.41;;;11.5;;
62457;SDS011;48509;52.122;5.250;2023-08-06T00:54:50;15.2;;;11.1;;
62457;SDS011;48509;52.122;5.250;2023-08-06T00:56:27;10.9;;;9.6;;
62457;SDS011;48509;52.122;5.250;2023-08-06T00:58:04;15.9;;;11.3;;
62457;SDS011;48509;52.122;5.250;2023-08-06T01:01:18;17.3;;;11.5;;
62457;SDS011;48509;52.122;5.250;2023-08-06T01:02:55;10.7;;;9.6;;
62457;SDS011;48509;52.122;5.250;2023-08-06T01:04:32;13.8;;;11.5;;
62457;SDS011;48509;52.122;5.250;2023-08-06T01:07:47;12.8;;;9.71;;
62457;SDS011;48509;52.122;5.250;2023-08-06T01:09:41;15.1;;;11.9;;
62457;SDS011;48509;52.122;5.250;2023-08-06T01:11:30;13.1;;;10.1;;
62457;SDS011;48509;52.122;5.250;2023-08-06T01:13:16;14.6;;;10.9;;
62457;SDS011;48509;52.122;5.250;2023-08-06T01:15:07;12.1;;;10.9;;
62457;SDS011;48509;52.122;5.250;2023-08-06T01:16:52;12.2;;;10.7;;
62457;SDS011;48509;52.122;5.250;2023-08-06T01:20:07;11.7;;;10.1;;
62457;SDS011;48509;52.122;5.250;2023-08-06T01:21:44;13.1;;;10.21;;
62457;SDS011;48509;52.122;5.250;2023-08-06T01:23:20;12.2;;;10.9;;
62457;SDS011;48509;52.122;5.250;2023-08-06T01:26:35;11.3;;;9.81;;
62457;SDS011;48509;52.122;5.250;2023-08-06T01:28:19;14.2;;;11.2;;
62457;SDS011;48509;52.122;5.250;2023-08-06T01:30:17;14.6;;;11.9;;
62457;SDS011;48509;52.122;5.250;2023-08-06T01:31:58;14.0;;;10.8;;
62457;SDS011;48509;52.122;5.250;2023-08-06T01:33:38;12.9;;;9.6;;
62457;SDS011;48509;52.122;5.250;2023-08-06T01:36:58;13.6;;;10.1;;
62457;SDS011;48509;52.122;5.250;2023-08-06T01:38:37;10.4;;;9.4;;
62457;SDS011;48509;52.122;5.250;2023-08-06T01:40:13;11.6;;;9.71;;
62457;SDS011;48509;52.122;5.250;2023-08-06T01:41:50;11.5;;;10.3;;
62457;SDS011;48509;52.122;5.250;2023-08-06T01:45:02;13.7;;;10.6;;
62457;SDS011;48509;52.122;5.250;2023-08-06T01:46:39;13.5;;;10.8;;
62457;SDS011;48509;52.122;5.250;2023-08-06T01:48:16;11.1;;;9.81;;
62457;SDS011;48509;52.122;5.250;2023-08-06T01:51:29;12.2;;;9.9;;
62457;SDS011;48509;52.122;5.250;2023-08-06T01:53:05;14.6;;;10.3;;
62457;SDS011;48509;52.122;5.250;2023-08-06T01:54:41;11.3;;;10.1;;
62457;SDS011;48509;52.122;5.250;2023-08-06T01:57:53;14.9;;;11.7;;
62457;SDS011;48509;52.122;5.250;2023-08-06T01:59:29;14.1;;;11.0;;
62457;SDS011;48509;52.122;5.250;2023-08-06T02:01:05;12.9;;;10.1;;
62457;SDS011;48509;52.122;5.250;2023-08-06T02:04:18;13.2;;;11.2;;
62457;SDS011;48509;52.122;5.250;2023-08-06T02:05:54;11.4;;;10.1;;
62457;SDS011;48509;52.122;5.250;2023-08-06T02:07:30;12.5;;;10.6;;
62457;SDS011;48509;52.122;5.250;2023-08-06T02:09:06;11.5;;;9.5;;
62457;SDS011;48509;52.122;5.250;2023-08-06T02:12:18;10.6;;;9.5;;
62457;SDS011;48509;52.122;5.250;2023-08-06T02:13:54;14.0;;;10.4;;
62457;SDS011;48509;52.122;5.250;2023-08-06T02:15:30;12.6;;;10.6;;
62457;SDS011;48509;52.122;5.250;2023-08-06T02:18:43;13.0;;;10.21;;
62457;SDS011;48509;52.122;5.250;2023-08-06T02:20:19;13.5;;;10.7;;
62457;SDS011;48509;52.122;5.250;2023-08-06T02:21:55;10.8;;;9.71;;
62457;SDS011;48509;52.122;5.250;2023-08-06T02:25:08;12.9;;;10.7;;
62457;SDS011;48509;52.122;5.250;2023-08-06T02:26:44;12.2;;;10.3;;
62457;SDS011;48509;52.122;5.250;2023-08-06T02:28:21;11.8;;;10.0;;
62457;SDS011;48509;52.122;5.250;2023-08-06T02:29:57;13.3;;;9.71;;
62457;SDS011;48509;52.122;5.250;2023-08-06T02:33:11;11.9;;;10.21;;
62457;SDS011;48509;52.122;5.250;2023-08-06T02:34:47;11.5;;;9.9;;
62457;SDS011;48509;52.122;5.250;2023-08-06T02:36:23;13.8;;;11.5;;
62457;SDS011;48509;52.122;5.250;2023-08-06T02:39:35;13.7;;;11.7;;
62457;SDS011;48509;52.122;5.250;2023-08-06T02:41:12;14.0;;;11.1;;
62457;SDS011;48509;52.122;5.250;2023-08-06T02:42:48;12.6;;;11.3;;
62457;SDS011;48509;52.122;5.250;2023-08-06T02:46:03;12.0;;;10.21;;
62457;SDS011;48509;52.122;5.250;2023-08-06T02:47:40;13.4;;;10.8;;
62457;SDS011;48509;52.122;5.250;2023-08-06T02:49:16;12.5;;;10.9;;
62457;SDS011;48509;52.122;5.250;2023-08-06T02:50:52;14.2;;;11.6;;
62457;SDS011;48509;52.122;5.250;2023-08-06T02:54:08;16.61;;;10.6;;
62457;SDS011;48509;52.122;5.250;2023-08-06T02:55:45;13.5;;;11.7;;
62457;SDS011;48509;52.122;5.250;2023-08-06T02:57:22;16.61;;;12.7;;
62457;SDS011;48509;52.122;5.250;2023-08-06T03:00:35;13.5;;;11.8;;
62457;SDS011;48509;52.122;5.250;2023-08-06T03:02:12;15.7;;;12.6;;
62457;SDS011;48509;52.122;5.250;2023-08-06T03:03:48;15.7;;;12.6;;
62457;SDS011;48509;52.122;5.250;2023-08-06T03:07:00;19.91;;;14.7;;
62457;SDS011;48509;52.122;5.250;2023-08-06T03:08:36;17.5;;;11.1;;
62457;SDS011;48509;52.122;5.250;2023-08-06T03:10:12;15.1;;;12.5;;
62457;SDS011;48509;52.122;5.250;2023-08-06T03:11:48;16.9;;;13.4;;
62457;SDS011;48509;52.122;5.250;2023-08-06T03:15:02;13.9;;;12.3;;
62457;SDS011;48509;52.122;5.250;2023-08-06T03:16:39;15.5;;;12.8;;
62457;SDS011;48509;52.122;5.250;2023-08-06T03:18:16;15.3;;;11.6;;
62457;SDS011;48509;52.122;5.250;2023-08-06T03:21:28;14.2;;;12.5;;
62457;SDS011;48509;52.122;5.250;2023-08-06T03:23:04;15.5;;;13.8;;
62457;SDS011;48509;52.122;5.250;2023-08-06T03:24:40;20.2;;;15.0;;
62457;SDS011;48509;52.122;5.250;2023-08-06T03:27:52;18.0;;;15.6;;
62457;SDS011;48509;52.122;5.250;2023-08-06T03:29:29;17.5;;;14.9;;
62457;SDS011;48509;52.122;5.250;2023-08-06T03:31:06;17.91;;;15.5;;
62457;SDS011;48509;52.122;5.250;2023-08-06T03:32:42;16.4;;;14.4;;
62457;SDS011;48509;52.122;5.250;2023-08-06T03:35:55;17.61;;;15.7;;
62457;SDS011;48509;52.122;5.250;2023-08-06T03:37:31;22.0;;;17.91;;
62457;SDS011;48509;52.122;5.250;2023-08-06T03:39:07;21.7;;;17.0;;
62457;SDS011;48509;52.122;5.250;2023-08-06T03:42:19;22.3;;;16.9;;
62457;SDS011;48509;52.122;5.250;2023-08-06T03:43:55;20.3;;;17.11;;
62457;SDS011;48509;52.122;5.250;2023-08-06T03:45:32;20.2;;;16.4;;
62457;SDS011;48509;52.122;5.250;2023-08-06T03:48:44;18.2;;;16.2;;
62457;SDS011;48509;52.122;5.250;2023-08-06T03:50:20;17.11;;;15.2;;
62457;SDS011;48509;52.122;5.250;2023-08-06T03:51:56;16.0;;;13.7;;
62457;SDS011;48509;52.122;5.250;2023-08-06T03:55:08;16.9;;;15.1;;
62457;SDS011;48509;52.122;5.250;2023-08-06T03:56:45;14.6;;;13.1;;
62457;SDS011;48509;52.122;5.250;2023-08-06T03:58:22;17.5;;;14.6;;
62457;SDS011;48509;52.122;5.250;2023-08-06T03:59:58;16.4;;;14.7;;
62457;SDS011;48509;52.122;5.250;2023-08-06T04:03:10;22.6;;;16.5;;
62457;SDS011;48509;52.122;5.250;2023-08-06T04:04:46;18.61;;;14.7;;
62457;SDS011;48509;52.122;5.250;2023-08-06T04:06:23;16.0;;;14.0;;
62457;SDS011;48509;52.122;5.250;2023-08-06T04:09:51;20.0;;;16.61;;
62457;SDS011;48509;52.122;5.250;2023-08-06T04:11:29;18.61;;;15.7;;
62457;SDS011;48509;52.122;5.250;2023-08-06T04:13:06;20.0;;;15.5;;
62457;SDS011;48509;52.122;5.250;2023-08-06T04:14:43;20.0;;;15.5;;
62457;SDS011;48509;52.122;5.250;2023-08-06T04:17:57;18.91;;;15.4;;
62457;SDS011;48509;52.122;5.250;2023-08-06T04:19:33;18.5;;;15.7;;
62457;SDS011;48509;52.122;5.250;2023-08-06T04:21:09;18.5;;;15.2;;
62457;SDS011;48509;52.122;5.250;2023-08-06T04:24:21;19.91;;;17.5;;
62457;SDS011;48509;52.122;5.250;2023-08-06T04:25:57;22.8;;;17.91;;
62457;SDS011;48509;52.122;5.250;2023-08-06T04:27:35;19.91;;;16.5;;
62457;SDS011;48509;52.122;5.250;2023-08-06T04:29:11;16.8;;;15.0;;
62457;SDS011;48509;52.122;5.250;2023-08-06T04:32:25;20.41;;;16.11;;
62457;SDS011;48509;52.122;5.250;2023-08-06T04:34:01;17.11;;;15.3;;
62457;SDS011;48509;52.122;5.250;2023-08-06T04:35:37;21.0;;;17.61;;
62457;SDS011;48509;52.122;5.250;2023-08-06T04:38:49;16.8;;;15.0;;
62457;SDS011;48509;52.122;5.250;2023-08-06T04:40:25;16.9;;;14.0;;
62457;SDS011;48509;52.122;5.250;2023-08-06T04:42:02;16.4;;;14.7;;
62457;SDS011;48509;52.122;5.250;2023-08-06T04:45:15;20.0;;;16.2;;
62457;SDS011;48509;52.122;5.250;2023-08-06T04:46:51;15.6;;;13.9;;
62457;SDS011;48509;52.122;5.250;2023-08-06T04:48:27;19.8;;;16.3;;
62457;SDS011;48509;52.122;5.250;2023-08-06T04:51:40;17.61;;;15.1;;
62457;SDS011;48509;52.122;5.250;2023-08-06T04:54:55;16.0;;;14.2;;
62457;SDS011;48509;52.122;5.250;2023-08-06T04:56:31;21.4;;;16.11;;
62457;SDS011;48509;52.122;5.250;2023-08-06T04:59:45;17.61;;;14.7;;
62457;SDS011;48509;52.122;5.250;2023-08-06T05:01:22;17.41;;;15.4;;
62457;SDS011;48509;52.122;5.250;2023-08-06T05:02:59;16.9;;;15.1;;
62457;SDS011;48509;52.122;5.250;2023-08-06T05:06:11;17.8;;;14.0;;
62457;SDS011;48509;52.122;5.250;2023-08-06T05:07:48;16.11;;;14.4;;
62457;SDS011;48509;52.122;5.250;2023-08-06T05:09:26;15.2;;;13.6;;
62457;SDS011;48509;52.122;5.250;2023-08-06T05:11:02;19.3;;;14.5;;
62457;SDS011;48509;52.122;5.250;2023-08-06T05:14:14;20.6;;;18.41;;
62457;SDS011;48509;52.122;5.250;2023-08-06T05:15:50;21.6;;;18.0;;
62457;SDS011;48509;52.122;5.250;2023-08-06T05:17:29;20.6;;;18.41;;
62457;SDS011;48509;52.122;5.250;2023-08-06T05:20:42;22.4;;;18.7;;
62457;SDS011;48509;52.122;5.250;2023-08-06T05:22:19;24.5;;;19.3;;
62457;SDS011;48509;52.122;5.250;2023-08-06T05:23:55;21.7;;;19.0;;
62457;SDS011;48509;52.122;5.250;2023-08-06T05:27:10;25.8;;;21.4;;
62457;SDS011;48509;52.122;5.250;2023-08-06T05:28:46;21.0;;;17.7;;
62457;SDS011;48509;52.122;5.250;2023-08-06T05:30:23;21.0;;;17.3;;
62457;SDS011;48509;52.122;5.250;2023-08-06T05:31:59;22.3;;;18.0;;
62457;SDS011;48509;52.122;5.250;2023-08-06T05:35:14;21.8;;;19.11;;
62457;SDS011;48509;52.122;5.250;2023-08-06T05:36:51;24.5;;;20.11;;
62457;SDS011;48509;52.122;5.250;2023-08-06T05:38:27;23.2;;;20.11;;
62457;SDS011;48509;52.122;5.250;2023-08-06T05:41:42;25.7;;;21.4;;
62457;SDS011;48509;52.122;5.250;2023-08-06T05:43:19;24.6;;;19.8;;
62457;SDS011;48509;52.122;5.250;2023-08-06T05:44:56;24.8;;;21.3;;
62457;SDS011;48509;52.122;5.250;2023-08-06T05:48:08;23.8;;;18.7;;
62457;SDS011;48509;52.122;5.250;2023-08-06T05:49:44;21.8;;;18.11;;
62457;SDS011;48509;52.122;5.250;2023-08-06T05:51:22;22.3;;;17.91;;
62457;SDS011;48509;52.122;5.250;2023-08-06T05:52:58;25.9;;;20.41;;
62457;SDS011;48509;52.122;5.250;2023-08-06T05:56:10;24.3;;;19.91;;
62457;SDS011;48509;52.122;5.250;2023-08-06T05:57:47;22.7;;;19.5;;
62457;SDS011;48509;52.122;5.250;2023-08-06T05:59:23;22.5;;;19.3;;
62457;SDS011;48509;52.122;5.250;2023-08-06T06:02:37;27.1;;;22.3;;
62457;SDS011;48509;52.122;5.250;2023-08-06T06:04:14;28.2;;;23.1;;
62457;SDS011;48509;52.122;5.250;2023-08-06T06:05:50;32.3;;;25.8;;
62457;SDS011;48509;52.122;5.250;2023-08-06T06:09:02;29.2;;;24.2;;
62457;SDS011;48509;52.122;5.250;2023-08-06T06:10:38;27.3;;;23.3;;
62457;SDS011;48509;52.122;5.250;2023-08-06T06:12:14;29.4;;;24.4;;
62457;SDS011;48509;52.122;5.250;2023-08-06T06:13:52;26.7;;;22.2;;
62457;SDS011;48509;52.122;5.250;2023-08-06T06:17:04;28.6;;;23.2;;
62457;SDS011;48509;52.122;5.250;2023-08-06T06:18:41;31.9;;;24.1;;
62457;SDS011;48509;52.122;5.250;2023-08-06T06:20:17;28.5;;;22.3;;
62457;SDS011;48509;52.122;5.250;2023-08-06T06:23:30;30.8;;;24.8;;
62457;SDS011;48509;52.122;5.250;2023-08-06T06:25:07;29.5;;;24.4;;
62457;SDS011;48509;52.122;5.250;2023-08-06T06:26:44;28.2;;;23.6;;
62457;SDS011;48509;52.122;5.250;2023-08-06T06:29:58;27.1;;;20.6;;
62457;SDS011;48509;52.122;5.250;2023-08-06T06:31:35;25.5;;;22.0;;
62457;SDS011;48509;52.122;5.250;2023-08-06T06:33:11;33.5;;;24.0;;
62457;SDS011;48509;52.122;5.250;2023-08-06T06:34:48;17.3;;;15.1;;
62457;SDS011;48509;52.122;5.250;2023-08-06T06:38:03;18.11;;;15.3;;
62457;SDS011;48509;52.122;5.250;2023-08-06T06:39:39;13.2;;;11.6;;
62457;SDS011;48509;52.122;5.250;2023-08-06T06:41:15;8.81;;;7.9;;
62457;SDS011;48509;52.122;5.250;2023-08-06T06:44:28;6.6;;;5.9;;
62457;SDS011;48509;52.122;5.250;2023-08-06T06:46:05;6.1;;;5.6;;
62457;SDS011;48509;52.122;5.250;2023-08-06T06:47:43;5.11;;;4.61;;
62457;SDS011;48509;52.122;5.250;2023-08-06T06:50:55;3.9;;;3.4;;
62457;SDS011;48509;52.122;5.250;2023-08-06T06:52:32;3.2;;;2.9;;
62457;SDS011;48509;52.122;5.250;2023-08-06T06:54:08;3.8;;;2.9;;
62457;SDS011;48509;52.122;5.250;2023-08-06T06:55:45;2.6;;;2.4;;
62457;SDS011;48509;52.122;5.250;2023-08-06T06:58:58;3.3;;;3.0;;
62457;SDS011;48509;52.122;5.250;2023-08-06T07:00:35;3.4;;;3.1;;
62457;SDS011;48509;52.122;5.250;2023-08-06T07:02:12;3.1;;;2.9;;
62457;SDS011;48509;52.122;5.250;2023-08-06T07:05:24;3.1;;;2.9;;
62457;SDS011;48509;52.122;5.250;2023-08-06T07:07:00;3.0;;;2.7;;
62457;SDS011;48509;52.122;5.250;2023-08-06T07:08:36;3.9;;;3.3;;
62457;SDS011;48509;52.122;5.250;2023-08-06T07:11:49;3.8;;;3.0;;
62457;SDS011;48509;52.122;5.250;2023-08-06T07:13:25;3.1;;;2.8;;
62457;SDS011;48509;52.122;5.250;2023-08-06T07:15:02;3.4;;;2.5;;
62457;SDS011;48509;52.122;5.250;2023-08-06T07:16:40;3.1;;;2.8;;
62457;SDS011;48509;52.122;5.250;2023-08-06T07:19:53;3.2;;;2.9;;
62457;SDS011;48509;52.122;5.250;2023-08-06T07:21:30;6.0;;;3.7;;
62457;SDS011;48509;52.122;5.250;2023-08-06T07:23:06;3.7;;;3.4;;
62457;SDS011;48509;52.122;5.250;2023-08-06T07:26:19;4.5;;;4.1;;
62457;SDS011;48509;52.122;5.250;2023-08-06T07:27:56;3.8;;;3.5;;
62457;SDS011;48509;52.122;5.250;2023-08-06T07:29:32;4.7;;;3.6;;
62457;SDS011;48509;52.122;5.250;2023-08-06T07:32:46;4.91;;;3.9;;
62457;SDS011;48509;52.122;5.250;2023-08-06T07:34:22;4.2;;;3.9;;
62457;SDS011;48509;52.122;5.250;2023-08-06T07:35:59;7.6;;;4.5;;
62457;SDS011;48509;52.122;5.250;2023-08-06T07:37:35;4.7;;;4.3;;
62457;SDS011;48509;52.122;5.250;2023-08-06T07:40:48;5.11;;;4.61;;
62457;SDS011;48509;52.122;5.250;2023-08-06T07:42:24;6.2;;;5.6;;
62457;SDS011;48509;52.122;5.250;2023-08-06T07:44:01;6.5;;;5.6;;
62457;SDS011;48509;52.122;5.250;2023-08-06T07:47:14;7.4;;;5.6;;
62457;SDS011;48509;52.122;5.250;2023-08-06T07:48:50;5.4;;;4.91;;
62457;SDS011;48509;52.122;5.250;2023-08-06T07:50:27;6.7;;;6.0;;
62457;SDS011;48509;52.122;5.250;2023-08-06T07:53:41;6.4;;;5.5;;
62457;SDS011;48509;52.122;5.250;2023-08-06T07:56:54;8.4;;;5.5;;
62457;SDS011;48509;52.122;5.250;2023-08-06T07:58:30;5.3;;;4.61;;
62457;SDS011;48509;52.122;5.250;2023-08-06T08:01:44;4.5;;;4.1;;
62457;SDS011;48509;52.122;5.250;2023-08-06T08:03:21;8.4;;;4.1;;
62457;SDS011;48509;52.122;5.250;2023-08-06T08:04:58;5.11;;;4.41;;
62457;SDS011;48509;52.122;5.250;2023-08-06T08:08:10;4.41;;;4.0;;
62457;SDS011;48509;52.122;5.250;2023-08-06T08:09:47;4.3;;;3.8;;
62457;SDS011;48509;52.122;5.250;2023-08-06T08:11:23;6.1;;;4.0;;
62457;SDS011;48509;52.122;5.250;2023-08-06T08:13:01;6.4;;;4.3;;
62457;SDS011;48509;52.122;5.250;2023-08-06T08:16:15;6.6;;;4.1;;
62457;SDS011;48509;52.122;5.250;2023-08-06T08:17:51;5.11;;;3.7;;
62457;SDS011;48509;52.122;5.250;2023-08-06T08:19:27;6.3;;;4.0;;
62457;SDS011;48509;52.122;5.250;2023-08-06T08:22:40;6.7;;;4.2;;
62457;SDS011;48509;52.122;5.250;2023-08-06T08:24:17;8.0;;;4.61;;
62457;SDS011;48509;52.122;5.250;2023-08-06T08:25:54;9.81;;;4.8;;
62457;SDS011;48509;52.122;5.250;2023-08-06T08:29:07;7.1;;;4.41;;
62457;SDS011;48509;52.122;5.250;2023-08-06T08:30:43;8.5;;;4.91;;
62457;SDS011;48509;52.122;5.250;2023-08-06T08:32:20;7.9;;;5.3;;
62457;SDS011;48509;52.122;5.250;2023-08-06T08:33:56;5.2;;;4.5;;
62457;SDS011;48509;52.122;5.250;2023-08-06T08:37:09;7.1;;;4.91;;
62457;SDS011;48509;52.122;5.250;2023-08-06T08:38:46;5.5;;;4.91;;
62457;SDS011;48509;52.122;5.250;2023-08-06T08:40:23;6.2;;;4.8;;
62457;SDS011;48509;52.122;5.250;2023-08-06T08:43:42;7.2;;;5.3;;
62457;SDS011;48509;52.122;5.250;2023-08-06T08:45:19;5.5;;;5.0;;
62457;SDS011;48509;52.122;5.250;2023-08-06T08:46:57;7.0;;;5.2;;
62457;SDS011;48509;52.122;5.250;2023-08-06T08:48:35;7.9;;;6.2;;
62457;SDS011;48509;52.122;5.250;2023-08-06T08:51:48;6.5;;;5.9;;
62457;SDS011;48509;52.122;5.250;2023-08-06T08:53:28;8.4;;;5.7;;
62457;SDS011;48509;52.122;5.250;2023-08-06T08:55:06;8.6;;;7.1;;
62457;SDS011;48509;52.122;5.250;2023-08-06T08:58:19;8.1;;;6.6;;
62457;SDS011;48509;52.122;5.250;2023-08-06T08:59:56;9.6;;;7.6;;
62457;SDS011;48509;52.122;5.250;2023-08-06T09:01:32;10.3;;;7.8;;
62457;SDS011;48509;52.122;5.250;2023-08-06T09:04:46;10.4;;;7.8;;
62457;SDS011;48509;52.122;5.250;2023-08-06T09:06:25;9.4;;;7.8;;
62457;SDS011;48509;52.122;5.250;2023-08-06T09:08:03;10.21;;;7.8;;
62457;SDS011;48509;52.122;5.250;2023-08-06T09:09:40;12.8;;;9.1;;
62457;SDS011;48509;52.122;5.250;2023-08-06T09:12:57;10.8;;;8.6;;
62457;SDS011;48509;52.122;5.250;2023-08-06T09:14:34;9.5;;;8.5;;
62457;SDS011;48509;52.122;5.250;2023-08-06T09:16:11;12.3;;;8.6;;
62457;SDS011;48509;52.122;5.250;2023-08-06T09:19:24;13.4;;;8.81;;
62457;SDS011;48509;52.122;5.250;2023-08-06T09:21:02;9.1;;;8.0;;
62457;SDS011;48509;52.122;5.250;2023-08-06T09:22:38;9.71;;;7.8;;
62457;SDS011;48509;52.122;5.250;2023-08-06T09:24:15;12.0;;;8.1;;
62457;SDS011;48509;52.122;5.250;2023-08-06T09:27:28;12.6;;;8.0;;
62457;SDS011;48509;52.122;5.250;2023-08-06T09:29:05;10.8;;;8.0;;
62457;SDS011;48509;52.122;5.250;2023-08-06T09:30:43;8.71;;;7.2;;
62457;SDS011;48509;52.122;5.250;2023-08-06T09:34:00;8.2;;;6.9;;
62457;SDS011;48509;52.122;5.250;2023-08-06T09:35:37;8.6;;;6.8;;
62457;SDS011;48509;52.122;5.250;2023-08-06T09:37:13;5.6;;;5.0;;
62457;SDS011;48509;52.122;5.250;2023-08-06T09:38:51;7.7;;;6.2;;
62457;SDS011;48509;52.122;5.250;2023-08-06T09:42:06;6.7;;;5.8;;
62457;SDS011;48509;52.122;5.250;2023-08-06T09:43:43;6.5;;;5.5;;
62457;SDS011;48509;52.122;5.250;2023-08-06T09:45:19;7.0;;;5.3;;
62457;SDS011;48509;52.122;5.250;2023-08-06T09:48:35;6.7;;;5.6;;
62457;SDS011;48509;52.122;5.250;2023-08-06T09:50:14;7.4;;;5.9;;
62457;SDS011;48509;52.122;5.250;2023-08-06T09:51:52;9.9;;;5.6;;
62457;SDS011;48509;52.122;5.250;2023-08-06T09:53:29;5.2;;;4.7;;
62457;SDS011;48509;52.122;5.250;2023-08-06T09:56:44;7.8;;;5.8;;
62457;SDS011;48509;52.122;5.250;2023-08-06T09:58:21;8.4;;;5.6;;
62457;SDS011;48509;52.122;5.250;2023-08-06T10:00:00;6.3;;;5.7;;
62457;SDS011;48509;52.122;5.250;2023-08-06T10:03:15;7.1;;;6.4;;
62457;SDS011;48509;52.122;5.250;2023-08-06T10:04:52;7.0;;;6.3;;
62457;SDS011;48509;52.122;5.250;2023-08-06T10:06:32;8.6;;;6.1;;
62457;SDS011;48509;52.122;5.250;2023-08-06T10:08:10;8.0;;;6.8;;
62457;SDS011;48509;52.122;5.250;2023-08-06T10:11:23;10.4;;;6.6;;
62457;SDS011;48509;52.122;5.250;2023-08-06T10:13:01;10.5;;;6.4;;
62457;SDS011;48509;52.122;5.250;2023-08-06T10:14:41;9.21;;;5.9;;
62457;SDS011;48509;52.122;5.250;2023-08-06T10:17:56;7.2;;;5.8;;
62457;SDS011;48509;52.122;5.250;2023-08-06T10:19:35;9.9;;;5.7;;
62457;SDS011;48509;52.122;5.250;2023-08-06T10:21:13;8.4;;;5.7;;
62457;SDS011;48509;52.122;5.250;2023-08-06T10:22:59;7.4;;;5.7;;
62457;SDS011;48509;52.122;5.250;2023-08-06T10:26:27;7.4;;;5.6;;
62457;SDS011;48509;52.122;5.250;2023-08-06T10:28:07;8.4;;;5.3;;
62457;SDS011;48509;52.122;5.250;2023-08-06T10:29:45;9.1;;;5.2;;
62457;SDS011;48509;52.122;5.250;2023-08-06T10:31:43;6.9;;;5.2;;
62457;SDS011;48509;52.122;5.250;2023-08-06T10:33:39;7.0;;;5.2;;
62457;SDS011;48509;52.122;5.250;2023-08-06T10:37:34;7.3;;;4.91;;
62457;SDS011;48509;52.122;5.250;2023-08-06T10:40:50;6.5;;;5.2;;
62457;SDS011;48509;52.122;5.250;2023-08-06T10:42:37;8.31;;;5.2;;
62457;SDS011;48509;52.122;5.250;2023-08-06T10:44:16;8.2;;;4.91;;
62457;SDS011;48509;52.122;5.250;2023-08-06T10:45:52;7.8;;;5.11;;
62457;SDS011;48509;52.122;5.250;2023-08-06T10:49:05;9.4;;;5.4;;
62457;SDS011;48509;52.122;5.250;2023-08-06T10:50:42;11.4;;;4.5;;
62457;SDS011;48509;52.122;5.250;2023-08-06T10:52:18;9.5;;;5.11;;
62457;SDS011;48509;52.122;5.250;2023-08-06T10:55:31;8.4;;;4.91;;
62457;SDS011;48509;52.122;5.250;2023-08-06T10:57:08;8.0;;;4.91;;
62457;SDS011;48509;52.122;5.250;2023-08-06T10:58:46;8.9;;;4.7;;
62457;SDS011;48509;52.122;5.250;2023-08-06T11:02:01;10.5;;;4.91;;
62457;SDS011;48509;52.122;5.250;2023-08-06T11:03:39;7.0;;;4.2;;
62457;SDS011;48509;52.122;5.250;2023-08-06T11:05:17;8.81;;;4.8;;
62457;SDS011;48509;52.122;5.250;2023-08-06T11:06:53;6.0;;;4.3;;
62457;SDS011;48509;52.122;5.250;2023-08-06T11:10:11;6.7;;;4.1;;
62457;SDS011;48509;52.122;5.250;2023-08-06T11:11:48;6.5;;;4.61;;
62457;SDS011;48509;52.122;5.250;2023-08-06T11:13:25;7.3;;;4.41;;
62457;SDS011;48509;52.122;5.250;2023-08-06T11:15:03;9.31;;;4.7;;
62457;SDS011;48509;52.122;5.250;2023-08-06T11:18:18;6.7;;;4.2;;
62457;SDS011;48509;52.122;5.250;2023-08-06T11:19:54;6.8;;;4.5;;
62457;SDS011;48509;52.122;5.250;2023-08-06T11:21:31;6.8;;;4.3;;
62457;SDS011;48509;52.122;5.250;2023-08-06T11:24:45;7.0;;;5.0;;
62457;SDS011;48509;52.122;5.250;2023-08-06T11:26:22;6.7;;;4.41;;
62457;SDS011;48509;52.122;5.250;2023-08-06T11:28:00;8.2;;;4.2;;
62457;SDS011;48509;52.122;5.250;2023-08-06T11:31:18;11.1;;;4.2;;
62457;SDS011;48509;52.122;5.250;2023-08-06T11:32:56;6.6;;;3.6;;
62457;SDS011;48509;52.122;5.250;2023-08-06T11:34:32;6.4;;;4.0;;
62457;SDS011;48509;52.122;5.250;2023-08-06T11:36:10;5.5;;;3.5;;
62457;SDS011;48509;52.122;5.250;2023-08-06T11:39:22;5.4;;;3.7;;
62457;SDS011;48509;52.122;5.250;2023-08-06T11:40:59;3.8;;;3.2;;
62457;SDS011;48509;52.122;5.250;2023-08-06T11:42:35;5.0;;;3.0;;
62457;SDS011;48509;52.122;5.250;2023-08-06T11:45:49;5.5;;;3.1;;
62457;SDS011;48509;52.122;5.250;2023-08-06T11:47:26;5.6;;;3.3;;
62457;SDS011;48509;52.122;5.250;2023-08-06T11:49:02;5.3;;;3.1;;
62457;SDS011;48509;52.122;5.250;2023-08-06T11:50:39;7.1;;;3.5;;
62457;SDS011;48509;52.122;5.250;2023-08-06T11:53:55;3.7;;;2.9;;
62457;SDS011;48509;52.122;5.250;2023-08-06T11:55:32;5.11;;;2.9;;
62457;SDS011;48509;52.122;5.250;2023-08-06T11:57:09;4.3;;;2.7;;
62457;SDS011;48509;52.122;5.250;2023-08-06T12:00:25;6.2;;;3.0;;
62457;SDS011;48509;52.122;5.250;2023-08-06T12:02:02;5.3;;;2.7;;
62457;SDS011;48509;52.122;5.250;2023-08-06T12:03:40;6.0;;;3.0;;
62457;SDS011;48509;52.122;5.250;2023-08-06T12:05:17;5.11;;;2.9;;
62457;SDS011;48509;52.122;5.250;2023-08-06T12:08:31;8.0;;;2.7;;
62457;SDS011;48509;52.122;5.250;2023-08-06T12:10:08;4.3;;;2.1;;
62457;SDS011;48509;52.122;5.250;2023-08-06T12:11:45;4.7;;;1.9;;
62457;SDS011;48509;52.122;5.250;2023-08-06T12:14:57;4.61;;;2.21;;
62457;SDS011;48509;52.122;5.250;2023-08-06T12:16:34;1.7;;;1.6;;
62457;SDS011;48509;52.122;5.250;2023-08-06T12:18:11;6.2;;;1.8;;
62457;SDS011;48509;52.122;5.250;2023-08-06T12:21:24;4.61;;;2.0;;
62457;SDS011;48509;52.122;5.250;2023-08-06T12:23:00;2.31;;;1.8;;
62457;SDS011;48509;52.122;5.250;2023-08-06T12:24:37;2.31;;;1.5;;
62457;SDS011;48509;52.122;5.250;2023-08-06T12:26:13;2.0;;;1.8;;
62457;SDS011;48509;52.122;5.250;2023-08-06T12:31:03;3.0;;;1.7;;
62457;SDS011;48509;52.122;5.250;2023-08-06T12:32:39;4.91;;;1.8;;
62457;SDS011;48509;52.122;5.250;2023-08-06T12:35:51;2.7;;;1.5;;
62457;SDS011;48509;52.122;5.250;2023-08-06T12:37:28;1.9;;;1.4;;
62457;SDS011;48509;52.122;5.250;2023-08-06T12:39:05;3.5;;;1.6;;
62457;SDS011;48509;52.122;5.250;2023-08-06T12:42:17;2.7;;;1.3;;
62457;SDS011;48509;52.122;5.250;2023-08-06T12:43:53;3.4;;;1.4;;
62457;SDS011;48509;52.122;5.250;2023-08-06T12:45:29;2.7;;;1.5;;
62457;SDS011;48509;52.122;5.250;2023-08-06T12:47:06;2.21;;;1.6;;
62457;SDS011;48509;52.122;5.250;2023-08-06T12:50:19;3.3;;;1.6;;
62457;SDS011;48509;52.122;5.250;2023-08-06T12:51:55;3.6;;;1.8;;
62457;SDS011;48509;52.122;5.250;2023-08-06T12:53:31;2.7;;;1.9;;